Weather at Honey Hill Heliport

Public forecast

Using degrees Fahrenheit for public forecast. Weather courtesy of forecast.io.

Closest aviation weather report (METAR) to Honey Hill Heliport

Closest report is Searcy Municipal Airport, 2.8 nm (5.2 km) ESE. Retrieved 2021/06/13 09:56 UTC (7 minutes ago):

KSRC 130956Z AUTO 32005KT 10SM OVC060 26/25 A2989 RMK AO2 SLP117 T02560250 PNO

Closest aviation forecast (TAF) to Honey Hill Heliport

Closest forecast is Little Rock Air Force Base, 26.0 nm (48.2 km) SW. Retrieved 2021/06/13 07:09 UTC (3 hours ago):

TAF TAF KLRF 130700Z 1307/1413 VRB06KT 9999 BKN060 QNH2986INS BECMG 1315/1316 03012KT 9999 SCT035 QNH2988INS TX34/1320Z TN24/1407Z